Terminal Aerodrome Forecast
Issued by NWS Twin Cities, MN

Home | Current Version | Previous Version | Graphics & Text | Print | Product List | Glossary On
Versions: 1 2 3 4 5 6 7 8 9 10 11 12 13 14 15 16 17 18 19 20 21 22 23 24 25 26 27 28 29 30 31 32 33 34 35 36
000
FTUS43 KMPX 141720
TAFMSP
TAF
KMSP 141720Z 1418/1524 29009KT P6SM -SHSN OVC015
     FM142300 30009KT P6SM -SHSN BKN025
     FM150600 29005KT P6SM BKN040
     FM151000 28006KT P6SM BKN030
     FM151600 VRB03KT P6SM -SHSN OVC015
     FM152200 VRB03KT P6SM OVC035=

USA.gov is the U.S. government's official web portal to all federal, state and local government web resources and services.